createdAt,value
2019-05-06T00:01:10.355Z,12.70
2019-05-06T00:03:40.759Z,12.70
2019-05-06T00:06:11.132Z,12.80
2019-05-06T00:08:43.838Z,12.80
2019-05-06T00:11:14.216Z,12.90
2019-05-06T00:13:44.736Z,12.90
2019-05-06T00:16:15.088Z,12.90
2019-05-06T00:18:45.392Z,12.90
2019-05-06T00:21:15.811Z,13.00
2019-05-06T00:23:50.460Z,13.10
2019-05-06T00:26:25.481Z,13.10
2019-05-06T00:28:57.472Z,13.10
2019-05-06T00:31:27.894Z,13.10
2019-05-06T00:33:58.196Z,13.10
2019-05-06T00:36:28.706Z,13.10
2019-05-06T00:39:00.621Z,13.20
2019-05-06T00:41:35.933Z,13.20
2019-05-06T00:44:04.598Z,13.20
2019-05-06T00:46:35.030Z,13.20
2019-05-06T00:49:05.346Z,13.30
2019-05-06T00:51:35.744Z,13.40
2019-05-06T00:54:14.311Z,13.40
2019-05-06T00:56:44.908Z,13.40
2019-05-06T00:59:15.292Z,13.40
2019-05-06T01:01:45.660Z,13.40
2019-05-06T01:04:15.967Z,13.40
2019-05-06T01:06:46.404Z,13.40
2019-05-06T01:09:21.140Z,13.40
2019-05-06T01:11:54.182Z,13.50
2019-05-06T01:14:29.222Z,13.50
2019-05-06T01:16:59.667Z,13.50
2019-05-06T01:19:29.987Z,13.60
2019-05-06T01:22:00.415Z,13.60
2019-05-06T01:24:30.872Z,13.60
2019-05-06T01:27:01.268Z,13.50
2019-05-06T01:29:31.675Z,13.50
2019-05-06T01:32:03.692Z,13.50
2019-05-06T01:34:34.382Z,13.40
2019-05-06T01:37:04.875Z,13.30
2019-05-06T01:39:43.611Z,13.30
2019-05-06T01:42:31.117Z,13.20
2019-05-06T01:45:01.471Z,13.10
2019-05-06T01:47:31.876Z,13.10
2019-05-06T01:50:04.384Z,13.00
2019-05-06T01:52:34.509Z,12.90
2019-05-06T01:55:09.027Z,12.80
2019-05-06T01:57:39.428Z,12.80
2019-05-06T02:00:10.180Z,12.80
2019-05-06T02:02:40.589Z,12.80
2019-05-06T02:05:11.233Z,12.90
2019-05-06T02:07:42.031Z,13.00
2019-05-06T02:10:14.217Z,13.00
2019-05-06T02:12:44.701Z,13.00
2019-05-06T02:15:15.486Z,13.00
2019-05-06T02:17:45.803Z,13.10
2019-05-06T02:20:16.311Z,13.10
2019-05-06T02:22:48.269Z,13.20
2019-05-06T02:25:20.220Z,13.20
2019-05-06T02:27:50.618Z,13.20
2019-05-06T02:30:25.222Z,13.30
2019-05-06T02:32:56.199Z,13.40
2019-05-06T02:35:28.159Z,13.50
2019-05-06T02:37:58.653Z,13.60
2019-05-06T02:40:32.952Z,13.90
2019-05-06T02:43:03.262Z,14.20
2019-05-06T02:45:34.204Z,14.30
2019-05-06T02:48:13.786Z,14.30
2019-05-06T02:50:46.003Z,14.40
2019-05-06T02:53:17.965Z,14.70
2019-05-06T02:55:48.323Z,15.10
2019-05-06T02:58:18.630Z,15.70
2019-05-06T03:00:49.044Z,16.60
2019-05-06T03:03:19.451Z,17.70
2019-05-06T03:05:52.924Z,18.60
2019-05-06T03:08:23.754Z,18.30
2019-05-06T03:10:53.911Z,17.60
2019-05-06T03:13:25.615Z,17.10
2019-05-06T03:15:55.962Z,17.70
2019-05-06T03:18:26.369Z,19.40
2019-05-06T03:20:58.326Z,20.90
2019-05-06T03:23:35.002Z,21.20
2019-05-06T03:26:06.540Z,20.00
2019-05-06T03:28:37.732Z,18.90
2019-05-06T03:31:08.486Z,17.50
2019-05-06T03:33:55.259Z,16.80
2019-05-06T03:36:23.628Z,16.50
2019-05-06T03:38:43.419Z,16.10
2019-05-06T03:41:15.919Z,15.90
2019-05-06T03:43:46.304Z,15.70
2019-05-06T03:46:18.241Z,15.70
2019-05-06T03:48:52.881Z,15.60
2019-05-06T03:51:23.383Z,15.90
2019-05-06T03:53:56.833Z,16.30
2019-05-06T03:56:27.437Z,16.50
2019-05-06T03:58:58.903Z,16.60
2019-05-06T04:01:29.323Z,16.30
2019-05-06T04:03:59.740Z,16.00
2019-05-06T04:06:33.301Z,15.90
2019-05-06T04:09:13.036Z,15.80
2019-05-06T04:11:43.396Z,15.60
2019-05-06T04:44:43.808Z,15.70
2019-05-06T04:47:17.594Z,15.90
2019-05-06T04:49:53.244Z,15.90
2019-05-06T04:52:34.272Z,16.10
2019-05-06T04:55:06.427Z,15.90
2019-05-06T04:57:39.058Z,15.80
2019-05-06T05:00:12.988Z,15.90
2019-05-06T05:02:46.452Z,16.00
2019-05-06T05:05:15.200Z,16.00
2019-05-06T05:07:45.587Z,16.00
2019-05-06T05:10:17.608Z,16.10
2019-05-06T05:13:05.769Z,16.20
2019-05-06T05:15:41.777Z,16.40
2019-05-06T05:18:16.460Z,16.40
2019-05-06T05:20:47.042Z,16.50
2019-05-06T05:23:17.433Z,16.60
2019-05-06T05:25:47.855Z,16.80
2019-05-06T05:28:18.278Z,17.00
2019-05-06T05:30:48.728Z,17.20
2019-05-06T05:33:19.101Z,17.30
2019-05-06T05:35:49.526Z,17.40
2019-05-06T05:38:19.962Z,17.50
2019-05-06T05:40:52.422Z,17.60
2019-05-06T05:43:42.394Z,17.70
2019-05-06T05:46:13.354Z,17.70
2019-05-06T05:48:51.963Z,17.60
2019-05-06T05:51:22.525Z,17.90
2019-05-06T05:53:52.911Z,18.00
2019-05-06T05:56:23.955Z,17.90
2019-05-06T05:58:54.758Z,18.00
2019-05-06T06:01:25.944Z,18.40
2019-05-06T06:03:56.314Z,18.50
2019-05-06T06:06:26.707Z,18.80
2019-05-06T06:09:02.886Z,18.80
2019-05-06T06:11:38.213Z,19.00
2019-05-06T06:14:13.287Z,19.20
2019-05-06T06:16:48.225Z,19.90
2019-05-06T06:19:32.855Z,20.80
2019-05-06T06:22:03.067Z,20.80
2019-05-06T06:24:34.980Z,21.40
2019-05-06T06:27:05.493Z,21.70
2019-05-06T06:29:35.865Z,21.80
2019-05-06T06:32:08.886Z,22.80
2019-05-06T06:35:08.299Z,24.00
2019-05-06T06:37:39.036Z,24.30
2019-05-06T06:40:13.093Z,25.20
2019-05-06T06:42:46.667Z,25.30
2019-05-06T06:45:17.041Z,25.10
2019-05-06T06:47:47.829Z,24.70
2019-05-06T06:50:22.104Z,25.50
2019-05-06T06:52:53.189Z,24.90
2019-05-06T06:55:25.456Z,24.30
2019-05-06T06:57:58.709Z,24.10
2019-05-06T07:00:47.042Z,23.70
2019-05-06T07:03:32.748Z,23.90
2019-05-06T07:06:06.339Z,23.80
2019-05-06T07:08:37.963Z,23.30
2019-05-06T07:11:09.068Z,22.80
2019-05-06T07:13:43.157Z,22.70
2019-05-06T07:16:13.559Z,22.60
2019-05-06T07:18:43.861Z,23.00
2019-05-06T07:21:15.804Z,23.20
2019-05-06T07:23:46.185Z,23.20
2019-05-06T07:26:18.869Z,23.10
2019-05-06T07:28:49.331Z,22.80
2019-05-06T07:31:23.822Z,23.00
2019-05-06T07:33:52.277Z,23.00
2019-05-06T07:36:23.028Z,22.80
2019-05-06T07:38:53.408Z,22.80
2019-05-06T07:41:45.736Z,23.30
2019-05-06T07:44:22.441Z,23.20
2019-05-06T07:47:03.359Z,23.60
2019-05-06T07:49:35.508Z,23.50
2019-05-06T07:52:08.093Z,23.60
2019-05-06T07:54:55.844Z,23.50
2019-05-06T07:57:27.610Z,23.50
2019-05-06T07:59:58.099Z,23.50
2019-05-06T08:02:28.603Z,23.40
2019-05-06T08:04:59.144Z,23.70
2019-05-06T08:07:29.656Z,23.70
2019-05-06T08:10:02.279Z,23.80
2019-05-06T08:12:33.508Z,23.30
2019-05-06T08:15:05.969Z,23.30
2019-05-06T08:17:38.272Z,23.80
2019-05-06T08:20:09.771Z,24.00
2019-05-06T08:22:56.507Z,24.30
2019-05-06T08:25:26.361Z,24.50
2019-05-06T08:27:56.740Z,24.70
2019-05-06T08:30:28.137Z,24.90
2019-05-06T08:32:58.502Z,24.40
2019-05-06T08:35:28.825Z,24.70
2019-05-06T08:37:59.195Z,24.80
2019-05-06T08:40:29.503Z,24.20
2019-05-06T08:43:02.058Z,24.00
2019-05-06T08:45:32.510Z,24.30
2019-05-06T08:48:03.128Z,24.20
2019-05-06T08:50:37.539Z,24.40
2019-05-06T08:53:15.262Z,24.50
2019-05-06T08:55:49.669Z,24.50
2019-05-06T08:58:22.159Z,24.90
2019-05-06T09:01:03.062Z,24.90
2019-05-06T09:03:33.417Z,24.40
2019-05-06T09:06:03.828Z,24.30
2019-05-06T09:08:34.140Z,24.40
2019-05-06T09:11:04.648Z,24.40
2019-05-06T09:13:36.524Z,24.60
2019-05-06T09:16:06.925Z,24.60
2019-05-06T09:18:37.393Z,24.80
2019-05-06T09:21:07.750Z,24.90
2019-05-06T09:23:38.084Z,24.80
2019-05-06T09:26:10.081Z,24.90
2019-05-06T09:28:49.367Z,25.00
2019-05-06T09:31:24.357Z,25.20
2019-05-06T09:33:59.081Z,24.60
2019-05-06T09:36:43.601Z,24.30
2019-05-06T09:39:02.313Z,24.30
2019-05-06T09:41:33.134Z,24.20
2019-05-06T09:44:12.305Z,24.50
2019-05-06T09:46:45.088Z,24.90
2019-05-06T09:49:20.092Z,24.80
2019-05-06T09:51:52.765Z,24.90
2019-05-06T09:54:36.951Z,24.50
2019-05-06T09:57:07.231Z,24.70
2019-05-06T09:59:39.423Z,25.10
2019-05-06T10:02:12.221Z,25.20
2019-05-06T10:04:42.814Z,24.90
2019-05-06T10:07:13.506Z,24.90
2019-05-06T10:09:46.205Z,25.00
2019-05-06T10:12:17.589Z,25.60
2019-05-06T10:14:53.363Z,25.30
2019-05-06T10:17:23.751Z,25.60
2019-05-06T10:19:54.293Z,25.50
2019-05-06T10:22:24.673Z,25.60
2019-05-06T10:24:55.138Z,25.30
2019-05-06T10:27:26.043Z,25.00
2019-05-06T10:29:59.030Z,25.10
2019-05-06T10:32:38.811Z,24.90
2019-05-06T10:35:13.176Z,25.00
2019-05-06T10:38:06.051Z,25.20
2019-05-06T10:41:00.848Z,25.40
2019-05-06T10:43:28.949Z,26.00
2019-05-06T10:46:04.323Z,25.80
2019-05-06T16:37:15.710Z,20.80
2019-05-06T17:44:42.867Z,17.90
2019-05-06T20:55:46.883Z,16.30
2019-05-06T20:58:19.071Z,16.40
2019-05-06T21:00:49.591Z,16.40
2019-05-06T21:03:21.961Z,16.50
2019-05-06T21:05:52.068Z,16.60
2019-05-06T21:08:22.449Z,16.60
2019-05-06T21:10:53.495Z,16.60
2019-05-06T21:13:31.421Z,16.60
2019-05-06T21:15:56.364Z,16.60
2019-05-06T21:18:26.884Z,16.60
2019-05-06T21:20:57.322Z,16.60
2019-05-06T21:23:28.843Z,16.60
2019-05-06T21:26:03.102Z,16.60
2019-05-06T21:28:35.473Z,16.60
2019-05-06T21:31:05.969Z,16.60
2019-05-06T21:33:36.394Z,16.60
2019-05-06T21:36:08.239Z,16.50
2019-05-06T21:38:45.419Z,16.50
2019-05-06T21:41:17.786Z,16.40
2019-05-06T21:43:50.177Z,16.40
2019-05-06T21:46:23.126Z,16.40
2019-05-06T21:48:58.187Z,16.40
2019-05-06T21:51:34.601Z,16.30
2019-05-06T21:54:05.703Z,16.30
2019-05-06T21:56:36.195Z,16.30
2019-05-06T21:59:08.179Z,16.20
2019-05-06T22:01:39.183Z,16.20
2019-05-06T22:04:12.818Z,16.10
2019-05-06T22:06:45.581Z,16.10
2019-05-06T22:09:14.925Z,16.10
2019-05-06T22:11:45.931Z,16.10
2019-05-06T22:14:16.382Z,16.10
2019-05-06T22:16:46.775Z,16.10
2019-05-06T22:19:17.256Z,16.00
2019-05-06T22:21:49.203Z,16.00
2019-05-06T22:24:22.378Z,15.90
2019-05-06T22:26:53.573Z,16.00
2019-05-06T22:29:24.453Z,15.90
2019-05-06T22:31:55.316Z,16.00
2019-05-06T22:34:25.781Z,16.00
2019-05-06T22:36:56.262Z,16.00
2019-05-06T22:39:27.422Z,16.00
2019-05-06T22:41:57.927Z,16.00
2019-05-06T22:44:28.377Z,16.00
2019-05-06T22:46:58.946Z,16.00
2019-05-06T22:49:29.402Z,16.00
2019-05-06T22:51:59.785Z,16.00
2019-05-06T22:54:31.990Z,16.00
2019-05-06T22:57:02.441Z,16.00
2019-05-06T22:59:33.133Z,16.00
2019-05-06T23:02:08.102Z,16.00
2019-05-06T23:04:40.064Z,16.00
2019-05-06T23:07:10.460Z,16.00
2019-05-06T23:09:42.559Z,16.00
2019-05-06T23:12:13.152Z,15.90
2019-05-06T23:14:43.573Z,15.90
2019-05-06T23:17:15.488Z,15.90
2019-05-06T23:19:46.013Z,15.90
2019-05-06T23:22:16.432Z,15.90
2019-05-06T23:24:46.886Z,15.90
2019-05-06T23:27:17.307Z,16.00
2019-05-06T23:29:47.699Z,16.00
2019-05-06T23:32:18.127Z,16.00
2019-05-06T23:34:48.554Z,15.90
2019-05-06T23:37:19.482Z,15.90
2019-05-06T23:40:27.956Z,15.90
2019-05-06T23:43:34.464Z,16.00
2019-05-06T23:46:41.730Z,16.00
2019-05-06T23:49:48.549Z,16.00
2019-05-06T23:52:54.981Z,16.00
2019-05-06T23:56:02.819Z,16.00
2019-05-06T23:58:33.540Z,16.00
